Decoded Metar for KSFF (SPOKANE in WA, USA) (IATA:SFF) | Meteo·Mobile Aviation Weather
aviador You're here:

KSFF Decoded Metar

SPOKANE in WA, USA
Report Time2018-10-19 18:53:00
UTC Time2018-10-19 19:26:50
Flight Rules vfr VFR
WindCalm
Visibility9999 m
Phenomena:N/A
Clouds:N/A
Expected CloudBase > 3,600 ft AGL from Temp-Dew spread
CeilingNone
Temp13°C (ISA +2)
Dew Point04°C (55% RH)
AAT11.7°C
QNH1029 hPa
Density Alt1,811 ft
Elevation1,998 ft
Report Wrong Elevation
Raw Report
KSFF 191853Z 00000KT 10SM CLR 13/04 A3039 RMK AO2 SLP294
T01280039=

Extra information for KSFF:More info

Metar Taf Metar & Taf Last 4 Metars F.Rules Stats Wind Profile Meteogram Temp Stats Airport Information Weather charts Add Link Nearby VenuesMetar ALERT Operation Metar Decoded Social comments

AIRNAV info for KSFF